createdAt,value
2017-12-06T00:00:05.812Z,22.67
2017-12-06T00:02:33.428Z,27.97
2017-12-06T00:05:01.960Z,23.50
2017-12-06T00:07:29.520Z,21.63
2017-12-06T00:09:57.082Z,22.00
2017-12-06T00:12:32.978Z,20.20
2017-12-06T00:18:02.010Z,19.50
2017-12-06T00:20:29.608Z,20.73
2017-12-06T00:22:57.197Z,19.80
2017-12-06T00:25:24.794Z,20.87
2017-12-06T00:27:52.379Z,17.40
2017-12-06T00:30:19.931Z,17.57
2017-12-06T00:32:47.549Z,15.27
2017-12-06T00:35:15.108Z,16.53
2017-12-06T00:37:42.664Z,14.27
2017-12-06T00:40:10.240Z,15.63
2017-12-06T00:42:38.711Z,15.13
2017-12-06T00:45:06.269Z,17.00
2017-12-06T00:47:33.833Z,13.13
2017-12-06T00:50:01.390Z,22.70
2017-12-06T00:52:28.947Z,18.40
2017-12-06T00:54:56.507Z,14.07
2017-12-06T00:57:24.112Z,15.13
2017-12-06T00:59:51.716Z,14.77
2017-12-06T01:02:19.268Z,15.77
2017-12-06T01:04:46.820Z,13.43
2017-12-06T01:07:14.380Z,16.97
2017-12-06T01:09:41.936Z,16.00
2017-12-06T01:12:09.579Z,14.97
2017-12-06T01:14:37.512Z,16.83
2017-12-06T01:17:05.067Z,19.83
2017-12-06T01:19:32.742Z,12.50
2017-12-06T01:22:00.328Z,18.83
2017-12-06T01:24:28.807Z,18.07
2017-12-06T01:26:56.476Z,13.17
2017-12-06T01:29:24.039Z,16.03
2017-12-06T01:31:51.603Z,20.47
2017-12-06T01:34:19.167Z,26.57
2017-12-06T01:36:46.817Z,18.83
2017-12-06T01:39:14.480Z,18.23
2017-12-06T01:41:42.188Z,18.23
2017-12-06T01:44:09.746Z,14.33
2017-12-06T01:46:37.333Z,22.63
2017-12-06T01:49:04.894Z,21.63
2017-12-06T01:51:32.592Z,16.80
2017-12-06T01:54:01.016Z,16.70
2017-12-06T01:56:28.636Z,17.20
2017-12-06T01:58:57.320Z,25.23
2017-12-06T02:01:24.885Z,24.07
2017-12-06T02:03:52.451Z,22.87
2017-12-06T02:06:20.007Z,31.83
2017-12-06T02:08:48.256Z,18.33
2017-12-06T02:11:15.819Z,21.67
2017-12-06T02:13:43.367Z,19.30
2017-12-06T02:16:10.928Z,21.90
2017-12-06T02:18:38.488Z,19.23
2017-12-06T02:21:06.044Z,17.43
2017-12-06T02:23:33.609Z,19.90
2017-12-06T02:26:01.172Z,20.50
2017-12-06T02:28:28.732Z,19.63
2017-12-06T02:30:56.328Z,19.30
2017-12-06T02:33:24.829Z,19.20
2017-12-06T02:35:52.396Z,18.23
2017-12-06T02:38:20.830Z,20.43
2017-12-06T02:41:00.125Z,20.80
2017-12-06T02:43:39.408Z,16.90
2017-12-06T02:46:06.963Z,19.80
2017-12-06T02:48:34.548Z,21.43
2017-12-06T02:51:02.112Z,22.07
2017-12-06T02:53:29.663Z,14.73
2017-12-06T02:55:57.253Z,14.23
2017-12-06T02:58:24.858Z,26.20
2017-12-06T03:00:52.506Z,18.30
2017-12-06T03:03:20.099Z,20.83
2017-12-06T03:05:47.657Z,21.77
2017-12-06T03:08:15.216Z,21.97
2017-12-06T03:10:42.798Z,19.33
2017-12-06T03:13:10.368Z,21.23
2017-12-06T03:15:37.985Z,20.23
2017-12-06T03:18:05.586Z,18.47
2017-12-06T03:20:33.309Z,22.37
2017-12-06T03:23:00.868Z,19.37
2017-12-06T03:25:28.429Z,20.13
2017-12-06T03:27:56.140Z,23.17
2017-12-06T03:30:23.716Z,19.90
2017-12-06T03:32:51.356Z,18.57
2017-12-06T03:35:18.920Z,21.57
2017-12-06T03:37:46.541Z,25.90
2017-12-06T03:40:14.105Z,19.00
2017-12-06T03:42:41.665Z,23.90
2017-12-06T03:45:09.269Z,17.57
2017-12-06T03:47:36.829Z,25.40
2017-12-06T03:50:04.451Z,21.93
2017-12-06T03:52:32.044Z,23.40
2017-12-06T03:54:59.604Z,20.67
2017-12-06T03:57:27.164Z,22.00
2017-12-06T03:59:54.777Z,21.80
2017-12-06T04:02:22.335Z,21.40
2017-12-06T04:04:49.947Z,21.40
2017-12-06T04:07:17.553Z,21.37
2017-12-06T04:09:45.112Z,26.60
2017-12-06T04:12:12.669Z,22.00
2017-12-06T04:14:40.261Z,21.47
2017-12-06T04:17:07.841Z,25.10
2017-12-06T04:19:35.416Z,22.77
2017-12-06T04:22:02.976Z,26.00
2017-12-06T04:24:30.582Z,23.43
2017-12-06T04:26:58.143Z,25.00
2017-12-06T04:29:25.824Z,20.33
2017-12-06T04:31:53.382Z,22.20
2017-12-06T04:34:20.950Z,20.73
2017-12-06T04:36:48.544Z,21.13
2017-12-06T04:39:17.401Z,17.57
2017-12-06T04:41:44.992Z,21.23
2017-12-06T04:44:12.659Z,22.43
2017-12-06T04:46:40.228Z,22.73
2017-12-06T04:49:07.796Z,22.23
2017-12-06T04:51:35.445Z,23.63
2017-12-06T04:54:03.045Z,24.50
2017-12-06T04:56:30.630Z,23.80
2017-12-06T04:58:58.192Z,22.03
2017-12-06T05:01:25.752Z,20.40
2017-12-06T05:03:53.313Z,25.13
2017-12-06T05:06:20.896Z,24.23
2017-12-06T05:08:48.451Z,28.53
2017-12-06T05:11:16.055Z,21.77
2017-12-06T05:13:43.618Z,21.13
2017-12-06T05:16:11.181Z,24.40
2017-12-06T05:18:38.781Z,20.10
2017-12-06T05:21:06.340Z,26.50
2017-12-06T05:23:33.946Z,24.97
2017-12-06T05:26:01.596Z,24.03
2017-12-06T05:28:29.164Z,23.17
2017-12-06T05:30:56.747Z,26.30
2017-12-06T05:33:24.444Z,24.97
2017-12-06T05:35:52.548Z,25.57
2017-12-06T05:38:20.208Z,22.73
2017-12-06T05:40:47.859Z,21.27
2017-12-06T05:43:16.026Z,29.40
2017-12-06T05:45:43.629Z,19.47
2017-12-06T05:48:11.248Z,24.80
2017-12-06T05:50:38.845Z,24.50
2017-12-06T05:53:06.405Z,19.13
2017-12-06T05:55:33.966Z,21.83
2017-12-06T05:58:01.594Z,19.90
2017-12-06T06:00:29.156Z,18.97
2017-12-06T06:02:56.721Z,24.27
2017-12-06T06:05:24.287Z,22.27
2017-12-06T06:07:51.848Z,21.20
2017-12-06T06:10:19.462Z,21.67
2017-12-06T06:12:47.020Z,21.07
2017-12-06T06:15:14.579Z,26.13
2017-12-06T06:17:42.140Z,23.80
2017-12-06T06:20:09.700Z,25.73
2017-12-06T06:22:37.332Z,27.90
2017-12-06T06:25:04.892Z,25.80
2017-12-06T06:27:32.626Z,25.23
2017-12-06T06:30:00.244Z,24.13
2017-12-06T06:32:27.908Z,23.93
2017-12-06T06:34:55.500Z,20.73
2017-12-06T06:37:23.060Z,22.90
2017-12-06T06:39:50.618Z,21.23
2017-12-06T06:42:18.348Z,19.93
2017-12-06T06:44:45.906Z,21.00
2017-12-06T06:47:13.463Z,19.30
2017-12-06T06:49:41.023Z,20.30
2017-12-06T06:52:08.684Z,18.73
2017-12-06T06:54:36.283Z,18.17
2017-12-06T06:57:03.883Z,16.37
2017-12-06T06:59:31.472Z,18.60
2017-12-06T07:01:59.036Z,16.67
2017-12-06T07:04:26.597Z,18.23
2017-12-06T07:06:54.215Z,21.43
2017-12-06T07:09:21.772Z,15.77
2017-12-06T07:11:49.342Z,20.00
2017-12-06T07:14:16.932Z,18.63
2017-12-06T07:16:44.601Z,16.57
2017-12-06T07:19:12.159Z,18.90
2017-12-06T07:21:40.545Z,23.53
2017-12-06T07:24:08.108Z,20.93
2017-12-06T07:26:35.668Z,17.00
2017-12-06T07:29:03.229Z,18.20
2017-12-06T07:31:30.793Z,22.30
2017-12-06T07:33:58.350Z,22.20
2017-12-06T07:36:25.905Z,17.87
2017-12-06T07:38:53.460Z,21.70
2017-12-06T07:41:21.057Z,21.63
2017-12-06T07:43:48.616Z,21.27
2017-12-06T07:46:16.850Z,23.73
2017-12-06T07:48:44.710Z,30.93
2017-12-06T07:51:12.708Z,20.57
2017-12-06T07:53:41.638Z,18.00
2017-12-06T07:56:09.465Z,21.47
2017-12-06T07:58:42.497Z,21.13
2017-12-06T08:01:10.056Z,21.70
2017-12-06T08:03:37.617Z,22.63
2017-12-06T08:06:05.176Z,27.37
2017-12-06T08:08:32.792Z,20.20
2017-12-06T08:11:00.352Z,22.50
2017-12-06T08:13:27.922Z,20.23
2017-12-06T08:15:55.484Z,20.67
2017-12-06T08:18:23.115Z,23.10
2017-12-06T08:20:50.677Z,22.63
2017-12-06T08:23:18.272Z,24.13
2017-12-06T08:25:45.842Z,21.23
2017-12-06T08:28:13.444Z,29.60
2017-12-06T08:30:41.005Z,28.20
2017-12-06T08:33:08.601Z,21.87
2017-12-06T08:35:36.160Z,18.37
2017-12-06T08:38:03.796Z,22.83
2017-12-06T08:40:31.492Z,20.70
2017-12-06T08:42:59.064Z,21.83
2017-12-06T08:45:26.632Z,17.40
2017-12-06T08:47:54.280Z,21.47
2017-12-06T08:50:21.840Z,23.90
2017-12-06T08:52:49.427Z,24.53
2017-12-06T08:55:17.064Z,23.33
2017-12-06T08:57:44.656Z,20.90
2017-12-06T09:00:12.255Z,19.03
2017-12-06T09:02:39.850Z,20.43
2017-12-06T09:05:07.512Z,22.70
2017-12-06T09:07:35.075Z,24.43
2017-12-06T09:10:02.640Z,21.23
2017-12-06T09:12:30.296Z,17.57
2017-12-06T09:14:57.861Z,25.73
2017-12-06T09:17:25.456Z,24.83
2017-12-06T09:19:53.080Z,21.97
2017-12-06T09:22:20.672Z,23.93
2017-12-06T09:24:48.264Z,18.37
2017-12-06T09:27:15.865Z,19.03
2017-12-06T09:29:43.423Z,22.27
2017-12-06T09:32:10.986Z,20.33
2017-12-06T09:34:38.548Z,17.10
2017-12-06T09:37:06.104Z,17.60
2017-12-06T09:39:33.694Z,17.07
2017-12-06T09:42:01.328Z,16.70
2017-12-06T09:44:28.993Z,20.03
2017-12-06T09:46:56.548Z,21.83
2017-12-06T09:49:24.186Z,21.20
2017-12-06T09:51:51.776Z,24.30
2017-12-06T09:54:19.332Z,18.87
2017-12-06T09:56:46.889Z,16.07
2017-12-06T09:59:14.552Z,29.90
2017-12-06T10:01:42.220Z,17.23
2017-12-06T10:04:09.816Z,22.80
2017-12-06T10:06:37.410Z,29.03
2017-12-06T10:09:05.004Z,21.70
2017-12-06T10:11:32.638Z,19.63
2017-12-06T10:13:59.548Z,16.77
2017-12-06T10:16:27.149Z,16.00
2017-12-06T10:18:54.841Z,18.23
2017-12-06T10:21:22.436Z,15.23
2017-12-06T10:23:50.001Z,17.57
2017-12-06T10:26:17.625Z,12.30
2017-12-06T10:28:45.184Z,16.10
2017-12-06T10:31:12.785Z,18.57
2017-12-06T10:33:40.346Z,18.73
2017-12-06T10:36:07.969Z,20.70
2017-12-06T10:38:35.532Z,18.80
2017-12-06T10:41:03.189Z,15.80
2017-12-06T10:43:30.753Z,17.00
2017-12-06T10:45:58.316Z,22.43
2017-12-06T10:48:25.917Z,15.10
2017-12-06T10:50:53.480Z,16.33
2017-12-06T10:53:21.041Z,17.80
2017-12-06T10:55:48.596Z,16.87
2017-12-06T10:58:16.157Z,20.13
2017-12-06T11:00:43.781Z,15.63
2017-12-06T11:03:11.508Z,15.23
2017-12-06T11:05:39.068Z,15.70
2017-12-06T11:08:06.631Z,17.27
2017-12-06T11:10:34.190Z,18.07
2017-12-06T11:13:01.757Z,19.50
2017-12-06T11:15:29.316Z,12.70
2017-12-06T11:18:00.762Z,18.20
2017-12-06T11:20:31.221Z,15.93
2017-12-06T11:23:08.465Z,16.10
2017-12-06T11:25:36.074Z,15.50
2017-12-06T11:28:03.670Z,16.70
2017-12-06T11:30:31.300Z,14.40
2017-12-06T11:32:58.869Z,19.63
2017-12-06T11:35:26.434Z,18.73
2017-12-06T11:37:53.998Z,17.40
2017-12-06T11:40:22.630Z,16.33
2017-12-06T11:42:50.192Z,17.63
2017-12-06T11:45:17.754Z,20.67
2017-12-06T11:47:45.450Z,17.00
2017-12-06T11:50:13.118Z,19.93
2017-12-06T11:52:40.782Z,16.73
2017-12-06T11:55:08.341Z,21.60
2017-12-06T11:57:35.899Z,19.20
2017-12-06T12:00:03.461Z,21.53
2017-12-06T12:02:31.057Z,17.50
2017-12-06T12:04:58.687Z,21.10
2017-12-06T12:07:26.376Z,17.10
2017-12-06T12:09:53.933Z,18.20
2017-12-06T12:12:21.579Z,18.23
2017-12-06T12:14:49.141Z,18.00
2017-12-06T12:17:16.708Z,19.77
2017-12-06T12:19:44.288Z,21.13
2017-12-06T12:22:11.845Z,19.50
2017-12-06T12:24:39.450Z,19.93
2017-12-06T12:27:07.014Z,21.17
2017-12-06T12:29:34.569Z,15.13
2017-12-06T12:32:02.130Z,21.40
2017-12-06T12:34:29.722Z,23.83
2017-12-06T12:36:57.281Z,19.50
2017-12-06T12:39:24.944Z,17.17
2017-12-06T12:41:52.546Z,21.50
2017-12-06T12:44:20.161Z,19.77
2017-12-06T12:46:47.754Z,27.63
2017-12-06T12:49:15.389Z,16.40
2017-12-06T12:51:42.990Z,19.70
2017-12-06T12:54:10.582Z,21.23
2017-12-06T12:56:38.184Z,21.50
2017-12-06T12:59:05.832Z,22.50
2017-12-06T13:01:33.422Z,22.77
2017-12-06T13:04:01.024Z,21.37
2017-12-06T13:06:28.718Z,16.37
2017-12-06T13:08:56.281Z,20.43
2017-12-06T13:11:23.952Z,23.17
2017-12-06T13:13:51.553Z,19.17
2017-12-06T13:16:19.169Z,21.83
2017-12-06T13:18:46.734Z,22.30
2017-12-06T13:21:14.328Z,24.70
2017-12-06T13:23:41.958Z,25.13
2017-12-06T13:26:09.521Z,25.33
2017-12-06T13:28:37.181Z,19.90
2017-12-06T13:31:04.842Z,23.53
2017-12-06T13:33:32.406Z,21.37
2017-12-06T13:35:59.973Z,25.13
2017-12-06T13:38:27.623Z,22.47
2017-12-06T13:40:55.217Z,24.60
2017-12-06T13:43:22.846Z,20.20
2017-12-06T13:45:50.510Z,21.10
2017-12-06T13:48:18.176Z,25.50
2017-12-06T13:50:45.736Z,26.33
2017-12-06T13:53:13.303Z,26.67
2017-12-06T13:55:40.877Z,24.60
2017-12-06T13:58:08.442Z,21.27
2017-12-06T14:00:36.082Z,15.17
2017-12-06T14:03:03.646Z,19.60
2017-12-06T14:05:31.212Z,22.80
2017-12-06T14:07:58.862Z,23.87
2017-12-06T14:10:26.420Z,23.77
2017-12-06T14:12:54.014Z,21.37
2017-12-06T14:15:21.644Z,22.60
2017-12-06T14:17:49.237Z,24.20
2017-12-06T14:20:16.870Z,22.37
2017-12-06T14:22:44.431Z,18.70
2017-12-06T14:25:11.992Z,20.60
2017-12-06T14:27:39.558Z,23.40
2017-12-06T14:30:07.213Z,22.93
2017-12-06T14:32:34.772Z,23.07
2017-12-06T14:35:02.340Z,18.70
2017-12-06T14:37:29.900Z,24.90
2017-12-06T14:39:57.498Z,25.70
2017-12-06T14:42:25.120Z,26.47
2017-12-06T14:44:52.684Z,31.23
2017-12-06T14:47:20.245Z,25.63
2017-12-06T14:49:47.809Z,25.47
2017-12-06T14:52:15.469Z,22.43
2017-12-06T14:54:43.035Z,19.53
2017-12-06T14:57:10.698Z,24.27
2017-12-06T14:59:38.357Z,21.67
2017-12-06T15:02:06.017Z,30.27
2017-12-06T15:04:33.622Z,21.33
2017-12-06T15:07:01.244Z,27.37
2017-12-06T15:09:28.909Z,29.60
2017-12-06T15:11:56.464Z,15.63
2017-12-06T15:14:24.038Z,20.03
2017-12-06T15:16:51.602Z,18.27
2017-12-06T15:19:19.169Z,25.03
2017-12-06T15:21:46.744Z,25.47
2017-12-06T15:24:14.303Z,22.87
2017-12-06T15:26:41.929Z,22.20
2017-12-06T15:29:09.533Z,15.00
2017-12-06T15:31:37.149Z,20.13
2017-12-06T15:34:04.820Z,15.27
2017-12-06T15:36:32.380Z,21.80
2017-12-06T15:39:00.042Z,29.50
2017-12-06T15:41:27.605Z,20.03
2017-12-06T15:43:55.261Z,17.07
2017-12-06T15:46:22.822Z,19.70
2017-12-06T15:48:50.489Z,21.30
2017-12-06T15:51:18.089Z,17.80
2017-12-06T15:53:45.714Z,23.63
2017-12-06T15:56:13.274Z,26.83
2017-12-06T15:58:40.834Z,24.13
2017-12-06T16:01:08.428Z,21.50
2017-12-06T16:03:35.988Z,22.80
2017-12-06T16:06:03.583Z,18.30
2017-12-06T16:08:31.172Z,19.00
2017-12-06T16:10:58.841Z,23.70
2017-12-06T16:13:26.436Z,18.97
2017-12-06T16:15:53.994Z,22.70
2017-12-06T16:18:21.587Z,25.90
2017-12-06T16:20:49.147Z,20.20
2017-12-06T16:23:16.746Z,18.40
2017-12-06T16:25:44.309Z,21.70
2017-12-06T16:28:11.912Z,20.37
2017-12-06T16:30:39.477Z,21.60
2017-12-06T16:33:07.088Z,16.60
2017-12-06T16:35:46.520Z,17.00
2017-12-06T16:38:14.192Z,20.97
2017-12-06T16:40:41.754Z,16.43
2017-12-06T16:43:09.322Z,18.47
2017-12-06T16:45:36.976Z,15.60
2017-12-06T16:48:04.537Z,17.17
2017-12-06T16:50:32.101Z,21.83
2017-12-06T16:52:59.661Z,16.43
2017-12-06T16:55:27.221Z,14.70
2017-12-06T16:57:54.875Z,13.47
2017-12-06T17:00:22.460Z,23.27
2017-12-06T17:02:50.101Z,14.73
2017-12-06T17:05:17.670Z,21.57
2017-12-06T17:07:45.229Z,15.60
2017-12-06T17:10:12.780Z,14.40
2017-12-06T17:12:40.338Z,21.00
2017-12-06T17:15:07.901Z,16.57
2017-12-06T17:17:35.457Z,16.37
2017-12-06T17:20:03.009Z,14.90
2017-12-06T17:22:30.566Z,16.23
2017-12-06T17:24:58.156Z,14.43
2017-12-06T17:27:25.810Z,12.70
2017-12-06T17:30:04.997Z,12.00
2017-12-06T17:32:32.552Z,12.37
2017-12-06T17:35:00.111Z,19.20
2017-12-06T17:37:27.669Z,10.33
2017-12-06T17:39:55.295Z,20.60
2017-12-06T17:42:22.852Z,12.17
2017-12-06T17:44:50.408Z,17.60
2017-12-06T17:47:17.973Z,17.77
2017-12-06T17:49:45.574Z,17.17
2017-12-06T17:52:13.193Z,17.10
2017-12-06T17:54:40.939Z,18.20
2017-12-06T17:57:08.492Z,15.00
2017-12-06T17:59:36.089Z,14.17
2017-12-06T18:02:03.648Z,15.40
2017-12-06T18:04:31.248Z,12.47
2017-12-06T18:06:58.788Z,16.03
2017-12-06T18:09:26.348Z,11.10
2017-12-06T18:11:53.912Z,15.07
2017-12-06T18:14:21.545Z,14.37
2017-12-06T18:16:49.209Z,13.93
2017-12-06T18:19:16.793Z,13.17
2017-12-06T18:21:45.199Z,16.30
2017-12-06T18:24:12.816Z,14.80
2017-12-06T18:26:40.373Z,13.63
2017-12-06T18:29:08.043Z,15.00
2017-12-06T18:31:35.596Z,13.30
2017-12-06T18:34:03.153Z,12.93
2017-12-06T18:36:30.712Z,12.80
2017-12-06T18:38:58.393Z,12.67
2017-12-06T18:41:25.957Z,16.03
2017-12-06T18:43:53.516Z,17.97
2017-12-06T18:46:21.079Z,15.43
2017-12-06T18:48:48.636Z,13.50
2017-12-06T18:51:16.198Z,15.77
2017-12-06T18:53:43.852Z,15.73
2017-12-06T18:56:11.508Z,15.47
2017-12-06T18:58:39.068Z,14.17
2017-12-06T19:01:06.734Z,12.97
2017-12-06T19:03:34.410Z,14.97
2017-12-06T19:06:02.057Z,13.07
2017-12-06T19:08:29.720Z,17.83
2017-12-06T19:10:57.279Z,15.20
2017-12-06T19:13:24.831Z,16.27
2017-12-06T19:15:52.408Z,12.70
2017-12-06T19:18:19.968Z,16.73
2017-12-06T19:20:47.634Z,11.77
2017-12-06T19:23:15.192Z,12.07
2017-12-06T19:25:42.752Z,16.10
2017-12-06T19:28:10.317Z,13.30
2017-12-06T19:30:37.887Z,11.53
2017-12-06T19:33:05.440Z,14.13
2017-12-06T19:35:32.998Z,14.17
2017-12-06T19:38:00.559Z,11.20
2017-12-06T19:40:28.115Z,10.50
2017-12-06T19:42:55.782Z,11.20
2017-12-06T19:45:23.336Z,11.67
2017-12-06T19:47:51.976Z,14.80
2017-12-06T19:50:19.588Z,13.23
2017-12-06T19:52:47.244Z,12.97
2017-12-06T19:55:14.913Z,10.63
2017-12-06T19:57:42.473Z,10.47
2017-12-06T20:00:10.029Z,13.43
2017-12-06T20:02:37.596Z,11.70
2017-12-06T20:05:05.272Z,8.50
2017-12-06T20:07:33.389Z,12.67
2017-12-06T20:10:00.950Z,10.40
2017-12-06T20:12:28.503Z,10.13
2017-12-06T20:14:56.061Z,12.77
2017-12-06T20:17:23.616Z,14.60
2017-12-06T20:19:51.168Z,8.73
2017-12-06T20:22:18.724Z,14.17
2017-12-06T20:24:46.276Z,9.60
2017-12-06T20:27:13.841Z,15.20
2017-12-06T20:29:41.408Z,8.63
2017-12-06T20:32:09.043Z,11.07
2017-12-06T20:34:36.596Z,12.37
2017-12-06T20:37:04.257Z,11.00
2017-12-06T20:39:31.877Z,8.80
2017-12-06T20:41:59.484Z,10.97
2017-12-06T20:44:27.037Z,8.30
2017-12-06T20:46:54.671Z,11.10
2017-12-06T20:49:22.227Z,9.83
2017-12-06T20:51:49.825Z,7.37
2017-12-06T20:54:17.387Z,16.23
2017-12-06T20:56:44.949Z,10.17
2017-12-06T20:59:12.497Z,7.93
2017-12-06T21:01:40.053Z,10.90
2017-12-06T21:04:07.608Z,12.53
2017-12-06T21:06:35.192Z,9.60
2017-12-06T21:09:02.810Z,7.70
2017-12-06T21:11:30.333Z,8.50
2017-12-06T21:13:57.974Z,9.80
2017-12-06T21:16:25.530Z,8.27
2017-12-06T21:18:53.100Z,8.87
2017-12-06T21:21:20.756Z,13.70
2017-12-06T21:23:48.308Z,13.73
2017-12-06T21:26:15.880Z,7.13
2017-12-06T21:28:43.431Z,9.20
2017-12-06T21:31:10.980Z,9.70
2017-12-06T21:33:38.538Z,13.07
2017-12-06T21:36:06.124Z,10.17
2017-12-06T21:38:33.682Z,10.97
2017-12-06T21:41:01.304Z,13.50
2017-12-06T21:43:29.005Z,9.80
2017-12-06T21:45:56.556Z,8.67
2017-12-06T21:48:24.109Z,10.80
2017-12-06T21:50:51.660Z,9.37
2017-12-06T21:53:19.217Z,13.30
2017-12-06T21:55:46.775Z,11.87
2017-12-06T21:58:14.330Z,16.10
2017-12-06T22:00:41.880Z,9.33
2017-12-06T22:03:09.492Z,6.30
2017-12-06T22:05:37.156Z,9.30
2017-12-06T22:08:04.819Z,7.93
2017-12-06T22:10:32.399Z,7.63
2017-12-06T22:12:59.959Z,11.03
2017-12-06T22:15:27.557Z,6.40
2017-12-06T22:17:55.122Z,7.50
2017-12-06T22:20:22.690Z,8.83
2017-12-06T22:22:50.285Z,11.70
2017-12-06T22:25:17.944Z,8.10
2017-12-06T22:27:45.496Z,7.53
2017-12-06T22:30:13.068Z,7.10
2017-12-06T22:32:40.733Z,8.60
2017-12-06T22:35:08.389Z,11.77
2017-12-06T22:37:35.976Z,11.00
2017-12-06T22:40:03.528Z,9.43
2017-12-06T22:42:31.174Z,7.63
2017-12-06T22:45:10.704Z,6.77
2017-12-06T22:47:38.305Z,9.53
2017-12-06T22:50:05.856Z,8.77
2017-12-06T22:52:33.504Z,7.70
2017-12-06T22:55:01.049Z,9.37
2017-12-06T22:57:28.629Z,8.30
2017-12-06T22:59:56.284Z,9.40
2017-12-06T23:02:23.833Z,8.50
2017-12-06T23:04:51.384Z,9.33
2017-12-06T23:07:18.969Z,5.80
2017-12-06T23:09:46.521Z,8.43
2017-12-06T23:12:14.105Z,9.70
2017-12-06T23:14:41.692Z,8.13
2017-12-06T23:17:09.251Z,9.63
2017-12-06T23:19:36.841Z,10.13
2017-12-06T23:22:04.541Z,6.70
2017-12-06T23:24:32.102Z,5.77
2017-12-06T23:26:59.685Z,7.83
2017-12-06T23:29:27.320Z,6.47
2017-12-06T23:31:54.868Z,7.70
2017-12-06T23:34:22.417Z,6.60
2017-12-06T23:36:50.014Z,8.23
2017-12-06T23:39:17.618Z,7.73
2017-12-06T23:41:45.145Z,7.53
2017-12-06T23:44:12.700Z,6.10
2017-12-06T23:46:40.249Z,7.90
2017-12-06T23:49:07.904Z,7.50
2017-12-06T23:51:35.457Z,9.97
2017-12-06T23:54:03.009Z,10.23
2017-12-06T23:56:30.560Z,11.60
2017-12-06T23:58:58.166Z,11.37
